Time;durP1;ratioP1;P1;durP2;ratioP2;P2;SDS_P1;SDS_P2;PMS_P1;PMS_P2;Temp;Humidity;BMP_temperature;BMP_pressure;BME280_temperature;BME280_humidity;BME280_pressure;Samples;Min_cycle;Max_cycle;Signal;HPM_P1;HPM_P2
2023/09/20 00:00:26;;;;;;;7.13;3.05;;;17.00;87.40;;;;;;5016558;28;20034;-51
2023/09/20 00:02:53;;;;;;;9.55;3.60;;;17.00;87.40;;;;;;5024799;28;20384;-52
2023/09/20 00:05:22;;;;;;;19.63;4.07;;;16.90;87.40;;;;;;5013175;28;20342;-53
2023/09/20 00:07:51;;;;;;;8.52;3.38;;;17.00;87.40;;;;;;5013871;28;20021;-54
2023/09/20 00:10:18;;;;;;;9.05;3.20;;;17.00;87.30;;;;;;5018463;28;20030;-54
2023/09/20 00:12:45;;;;;;;7.53;3.35;;;17.00;87.50;;;;;;5013344;28;20083;-55
2023/09/20 00:15:14;;;;;;;10.30;5.00;;;17.00;87.40;;;;;;4995697;28;20478;-53
2023/09/20 00:17:41;;;;;;;7.47;3.22;;;17.00;87.60;;;;;;5016565;28;20450;-54
2023/09/20 00:20:18;;;;;;;11.25;4.07;;;17.00;87.60;;;;;;5032831;28;20151;-54
2023/09/20 00:22:48;;;;;;;7.85;3.00;;;17.00;87.70;;;;;;5012848;28;20037;-54
2023/09/20 00:25:15;;;;;;;7.80;3.30;;;17.00;87.80;;;;;;5013032;28;20478;-55
2023/09/20 00:27:45;;;;;;;14.48;3.67;;;17.00;87.90;;;;;;5013220;28;20444;-54
2023/09/20 00:30:17;;;;;;;8.48;3.28;;;17.00;88.00;;;;;;4995280;28;20116;-53
2023/09/20 00:33:01;;;;;;;7.72;3.47;;;17.00;88.00;;;;;;4998329;28;20038;-55
2023/09/20 00:35:28;;;;;;;;;;;16.90;88.00;;;;;;4995715;28;20030;-55
2023/09/20 00:37:53;;;;;;;8.77;3.75;;;16.90;88.00;;;;;;5015461;28;20337;-55
2023/09/20 00:40:21;;;;;;;12.88;4.30;;;17.00;87.80;;;;;;5012979;28;20058;-55
2023/09/20 00:42:57;;;;;;;7.03;2.70;;;17.00;87.60;;;;;;4995037;28;20056;-55
2023/09/20 00:45:23;;;;;;;10.02;3.25;;;17.00;87.70;;;;;;4995806;28;20614;-48
2023/09/20 00:47:58;;;;;;;11.00;4.30;;;17.00;87.60;;;;;;5012809;28;20022;-50
2023/09/20 00:50:29;;;;;;;9.60;3.83;;;17.00;87.70;;;;;;4979075;28;20121;-54
2023/09/20 00:52:56;;;;;;;9.73;4.25;;;17.10;87.70;;;;;;4996385;28;20034;-53
2023/09/20 00:55:29;;;;;;;9.43;3.20;;;17.10;87.70;;;;;;5022516;28;20483;-53
2023/09/20 00:58:03;;;;;;;8.80;3.65;;;17.10;87.40;;;;;;5016090;28;20117;-53
2023/09/20 01:00:32;;;;;;;7.45;3.42;;;17.10;87.40;;;;;;5015853;28;20065;-54
2023/09/20 01:03:05;;;;;;;9.98;4.50;;;17.20;87.30;;;;;;5032374;28;20026;-54
2023/09/20 01:05:39;;;;;;;8.98;4.88;;;17.20;87.30;;;;;;5032201;28;20025;-52
2023/09/20 01:08:08;;;;;;;10.35;3.60;;;17.20;87.40;;;;;;5032615;28;20389;-55
2023/09/20 01:10:36;;;;;;;5.93;2.67;;;17.20;87.30;;;;;;5014719;28;20044;-55
2023/09/20 01:13:07;;;;;;;7.17;2.97;;;17.20;87.40;;;;;;5031302;28;20045;-50
2023/09/20 01:15:35;;;;;;;8.57;3.40;;;17.20;87.40;;;;;;5032148;28;20676;-53
2023/09/20 01:18:03;;;;;;;8.50;3.17;;;17.10;87.30;;;;;;5032268;28;20048;-52
2023/09/20 01:20:37;;;;;;;8.77;3.33;;;17.20;87.40;;;;;;5050946;28;20025;-55
2023/09/20 01:23:03;;;;;;;8.85;2.95;;;17.20;87.40;;;;;;5031632;28;20042;-53
2023/09/20 01:25:35;;;;;;;5.30;2.97;;;17.10;87.50;;;;;;5014782;28;20156;-54
2023/09/20 01:28:06;;;;;;;11.23;3.47;;;17.20;87.50;;;;;;5032600;28;20024;-54
2023/09/20 01:30:36;;;;;;;4.80;2.80;;;17.20;87.40;;;;;;5032347;28;20068;-49
2023/09/20 01:33:09;;;;;;;6.20;2.70;;;17.20;87.60;;;;;;5031435;28;20034;-53
2023/09/20 01:35:40;;;;;;;6.07;2.70;;;17.20;87.50;;;;;;4999937;28;20443;-51
2023/09/20 01:38:10;;;;;;;7.90;2.88;;;17.20;87.50;;;;;;5050888;28;20037;-55
2023/09/20 01:40:36;;;;;;;8.20;2.95;;;17.20;87.60;;;;;;5032094;28;20067;-53
2023/09/20 01:43:04;;;;;;;8.93;4.13;;;17.20;87.70;;;;;;5035159;28;20107;-53
2023/09/20 01:45:32;;;;;;;10.40;3.72;;;17.20;87.80;;;;;;5055303;28;20638;-55
2023/09/20 01:48:06;;;;;;;13.60;4.30;;;17.20;87.90;;;;;;5036026;28;20040;-54
2023/09/20 01:50:44;;;;;;;11.32;3.78;;;17.10;88.00;;;;;;5020667;28;20490;-52
2023/09/20 01:53:14;;;;;;;12.23;4.45;;;17.10;88.20;;;;;;5035437;28;20037;-53
2023/09/20 01:55:43;;;;;;;10.43;4.18;;;17.10;88.40;;;;;;5054156;28;20106;-54
2023/09/20 01:58:16;;;;;;;11.57;4.28;;;17.10;88.60;;;;;;5053362;28;20075;-53
2023/09/20 02:00:50;;;;;;;5.68;4.18;;;17.10;88.70;;;;;;5036835;28;20029;-55
2023/09/20 02:03:19;;;;;;;7.68;4.15;;;17.00;88.80;;;;;;5042483;28;20029;-55
2023/09/20 02:05:48;;;;;;;9.20;3.85;;;17.00;88.80;;;;;;5034839;28;20055;-52
2023/09/20 02:08:16;;;;;;;9.88;4.07;;;16.90;88.90;;;;;;5035270;28;20025;-54
2023/09/20 02:10:44;;;;;;;10.50;3.95;;;16.90;89.10;;;;;;5035520;28;20075;-50
2023/09/20 02:13:13;;;;;;;11.00;5.10;;;16.90;89.50;;;;;;5035047;28;20029;-51
2023/09/20 02:15:43;;;;;;;6.80;3.95;;;16.90;89.60;;;;;;5035272;28;20189;-53
2023/09/20 02:18:10;;;;;;;11.23;4.65;;;16.90;89.80;;;;;;5017658;28;20104;-52
2023/09/20 02:20:38;;;;;;;9.65;4.85;;;16.80;90.00;;;;;;5034958;28;20025;-52
2023/09/20 02:23:06;;;;;;;9.45;4.53;;;16.80;90.00;;;;;;5034637;28;20017;-47
2023/09/20 02:25:32;;;;;;;11.40;4.97;;;16.80;89.90;;;;;;5029285;28;20040;-50
2023/09/20 02:27:59;;;;;;;11.05;4.63;;;16.80;89.80;;;;;;5037332;28;20096;-52
2023/09/20 02:30:28;;;;;;;7.00;4.07;;;16.80;89.70;;;;;;5026663;28;20124;-53
2023/09/20 02:33:05;;;;;;;13.07;4.60;;;16.90;89.50;;;;;;5033759;28;20366;-55
2023/09/20 02:35:36;;;;;;;8.13;4.68;;;16.90;89.30;;;;;;5035612;28;20489;-53
2023/09/20 02:38:05;;;;;;;9.05;4.13;;;16.90;89.00;;;;;;5054494;28;20408;-55
2023/09/20 02:40:33;;;;;;;9.23;4.03;;;16.90;88.80;;;;;;5022042;28;20064;-54
2023/09/20 02:43:03;;;;;;;11.80;4.30;;;16.90;88.60;;;;;;5034806;28;20033;-54
2023/09/20 02:45:29;;;;;;;11.02;3.90;;;17.00;88.40;;;;;;5050253;28;20049;-55
2023/09/20 02:47:58;;;;;;;11.90;3.50;;;16.90;88.40;;;;;;5054301;28;20013;-50
2023/09/20 02:50:27;;;;;;;6.47;3.88;;;17.00;88.40;;;;;;5044383;28;20033;-53
2023/09/20 02:52:56;;;;;;;10.20;3.95;;;16.90;88.50;;;;;;5033437;28;20029;-54
2023/09/20 02:55:27;;;;;;;9.68;3.42;;;17.00;88.60;;;;;;5034320;28;20071;-54
2023/09/20 02:57:54;;;;;;;9.52;4.03;;;16.90;88.80;;;;;;5034309;28;20035;-52
2023/09/20 03:00:27;;;;;;;10.40;4.40;;;16.90;89.00;;;;;;5033417;28;20125;-54
2023/09/20 03:02:57;;;;;;;11.23;4.13;;;16.90;88.90;;;;;;5033293;28;20087;-53
2023/09/20 03:05:41;;;;;;;;;;;16.80;89.10;;;;;;5017326;28;20423;-51
2023/09/20 03:08:12;;;;;;;6.47;3.88;;;16.80;89.20;;;;;;5016252;28;19905;-52
2023/09/20 03:10:44;;;;;;;12.35;4.55;;;16.70;89.40;;;;;;5047981;28;20120;-51
2023/09/20 03:13:16;;;;;;;12.77;4.03;;;16.70;89.40;;;;;;5051887;28;20037;-53
2023/09/20 03:15:48;;;;;;;8.43;4.32;;;16.70;89.30;;;;;;5031306;28;20041;-55
2023/09/20 03:18:22;;;;;;;10.80;4.55;;;16.70;89.10;;;;;;5032899;28;20084;-53
2023/09/20 03:20:49;;;;;;;8.77;3.90;;;16.80;88.80;;;;;;5033564;28;20029;-52
2023/09/20 03:23:16;;;;;;;10.63;3.63;;;16.80;88.80;;;;;;5033753;28;20658;-52
2023/09/20 03:25:44;;;;;;;9.73;4.22;;;16.80;88.70;;;;;;5047154;28;20052;-50
2023/09/20 03:28:09;;;;;;;12.25;3.97;;;16.80;88.50;;;;;;5053414;28;20393;-54
2023/09/20 03:30:39;;;;;;;12.70;4.32;;;16.80;88.40;;;;;;5030374;28;20036;-53
2023/09/20 03:33:10;;;;;;;10.05;3.25;;;16.90;88.10;;;;;;5049504;28;20045;-52
2023/09/20 03:35:38;;;;;;;8.98;4.10;;;16.90;87.90;;;;;;5053272;28;20139;-51
2023/09/20 03:38:05;;;;;;;13.48;4.80;;;16.90;87.70;;;;;;5052323;28;20135;-52
2023/09/20 03:40:34;;;;;;;11.70;4.05;;;16.90;87.60;;;;;;5033585;28;20044;-55
2023/09/20 03:43:07;;;;;;;8.25;3.67;;;16.90;87.50;;;;;;5051533;28;20044;-55
2023/09/20 03:45:37;;;;;;;7.68;3.17;;;16.90;87.30;;;;;;5053550;28;20028;-51
2023/09/20 03:48:05;;;;;;;14.05;4.05;;;16.90;87.30;;;;;;5046291;28;20096;-54
2023/09/20 03:50:31;;;;;;;11.40;4.07;;;17.00;87.20;;;;;;5046109;28;20056;-52
2023/09/20 03:53:00;;;;;;;9.18;3.55;;;16.90;86.90;;;;;;5052716;28;20458;-55
2023/09/20 03:55:28;;;;;;;9.20;3.30;;;16.90;86.90;;;;;;5041915;28;20057;-53
2023/09/20 03:57:56;;;;;;;7.85;3.38;;;16.90;86.90;;;;;;5032867;28;20354;-54
2023/09/20 04:00:27;;;;;;;11.43;3.88;;;17.00;86.70;;;;;;5033504;28;20056;-55
2023/09/20 04:02:54;;;;;;;9.60;3.75;;;17.00;86.30;;;;;;5032846;28;20828;-52
2023/09/20 04:05:24;;;;;;;11.77;3.47;;;16.90;86.30;;;;;;5032742;28;20026;-55
2023/09/20 04:07:51;;;;;;;12.80;4.28;;;17.00;86.40;;;;;;5032697;28;20033;-53
2023/09/20 04:10:19;;;;;;;13.65;3.97;;;17.00;86.20;;;;;;5022904;28;20037;-53
2023/09/20 04:12:47;;;;;;;11.20;3.47;;;17.00;86.20;;;;;;5050402;28;20041;-51
2023/09/20 04:15:15;;;;;;;8.30;3.58;;;17.00;86.00;;;;;;5053029;28;20039;-55
2023/09/20 04:17:44;;;;;;;12.32;3.80;;;17.00;85.90;;;;;;5053195;28;20102;-51
2023/09/20 04:20:12;;;;;;;10.20;3.38;;;17.10;85.80;;;;;;5051463;28;20057;-52
2023/09/20 04:22:42;;;;;;;7.38;2.78;;;17.10;85.70;;;;;;5043316;28;20026;-54
2023/09/20 04:25:10;;;;;;;8.45;4.05;;;17.00;85.90;;;;;;5032831;28;20382;-53
2023/09/20 04:27:36;;;;;;;8.07;3.83;;;17.00;86.00;;;;;;5032448;28;20084;-49
2023/09/20 04:30:03;;;;;;;10.15;3.17;;;17.00;86.10;;;;;;4999138;28;20049;-49
2023/09/20 04:32:33;;;;;;;9.25;3.95;;;17.10;85.90;;;;;;5030498;28;20040;-54
2023/09/20 04:35:02;;;;;;;10.65;4.30;;;17.10;85.70;;;;;;5037874;28;20052;-55
2023/09/20 04:37:30;;;;;;;;;;;17.10;85.80;;;;;;5048204;28;20025;-52
2023/09/20 04:39:58;;;;;;;8.95;3.33;;;17.10;85.80;;;;;;5033079;28;19909;-55
2023/09/20 04:42:27;;;;;;;8.05;2.70;;;17.20;85.90;;;;;;5051824;28;20043;-50
2023/09/20 04:44:55;;;;;;;5.85;2.80;;;17.10;85.80;;;;;;5033063;28;20521;-50
2023/09/20 04:47:22;;;;;;;9.63;3.30;;;17.10;85.60;;;;;;5032679;28;20064;-53
2023/09/20 04:49:50;;;;;;;9.50;2.95;;;17.10;85.70;;;;;;5032760;28;20136;-54
2023/09/20 04:52:21;;;;;;;9.80;3.78;;;17.10;85.70;;;;;;5032599;28;20021;-53
2023/09/20 04:55:05;;;;;;;12.27;3.70;;;17.20;85.70;;;;;;5017423;28;20469;-51
2023/09/20 04:57:34;;;;;;;13.63;5.07;;;17.20;85.50;;;;;;5048334;28;20049;-53
2023/09/20 05:00:09;;;;;;;9.23;2.72;;;17.10;85.50;;;;;;5032181;28;20091;-54
2023/09/20 05:02:37;;;;;;;7.90;3.47;;;17.10;85.50;;;;;;5032490;28;20037;-53
2023/09/20 05:05:05;;;;;;;8.80;3.08;;;17.20;85.60;;;;;;5014459;28;20075;-53
2023/09/20 05:07:33;;;;;;;7.70;3.58;;;17.20;85.60;;;;;;5051543;28;20021;-49
2023/09/20 05:10:00;;;;;;;9.43;3.57;;;17.20;85.60;;;;;;5052394;28;20029;-53
2023/09/20 05:12:26;;;;;;;15.13;4.43;;;17.20;85.70;;;;;;5050881;28;20064;-55
2023/09/20 05:14:51;;;;;;;6.60;3.63;;;17.10;85.70;;;;;;5040105;28;20068;-52
2023/09/20 05:17:20;;;;;;;10.13;3.80;;;17.10;85.50;;;;;;5033012;28;20049;-53
2023/09/20 05:19:47;;;;;;;9.00;3.50;;;17.10;85.60;;;;;;5039144;28;20455;-53
2023/09/20 05:22:14;;;;;;;6.95;3.00;;;17.10;85.70;;;;;;5018601;28;21130;-53
2023/09/20 05:24:42;;;;;;;8.18;3.15;;;17.10;85.70;;;;;;5018518;28;20458;-52
2023/09/20 05:27:14;;;;;;;11.70;3.60;;;17.10;85.80;;;;;;5047851;28;20029;-51
2023/09/20 05:29:45;;;;;;;9.55;3.80;;;17.10;85.80;;;;;;5055867;28;20017;-51
2023/09/20 05:32:11;;;;;;;9.20;3.58;;;17.20;86.00;;;;;;5038920;28;20033;-50
2023/09/20 05:34:39;;;;;;;10.13;4.07;;;17.10;85.90;;;;;;5035897;28;20084;-52
2023/09/20 05:37:07;;;;;;;9.52;3.70;;;17.20;85.90;;;;;;5035810;28;20033;-54
2023/09/20 05:39:34;;;;;;;7.43;3.50;;;17.20;85.90;;;;;;5018261;28;20037;-51
2023/09/20 05:42:05;;;;;;;9.95;3.45;;;17.20;85.70;;;;;;5034425;28;20478;-53
2023/09/20 05:44:31;;;;;;;9.55;3.85;;;17.20;85.70;;;;;;5035556;28;20036;-52
2023/09/20 05:46:58;;;;;;;7.80;3.10;;;17.20;85.50;;;;;;5035738;28;20109;-55
2023/09/20 05:49:26;;;;;;;9.27;4.10;;;17.20;85.40;;;;;;5018520;28;20029;-49
2023/09/20 05:51:53;;;;;;;9.25;3.88;;;17.30;85.30;;;;;;5035349;28;20037;-55
2023/09/20 05:54:21;;;;;;;8.15;3.90;;;17.30;85.20;;;;;;5035344;28;20018;-53
2023/09/20 05:56:48;;;;;;;6.30;3.10;;;17.30;84.90;;;;;;5036565;28;20053;-52
2023/09/20 05:59:14;;;;;;;10.13;4.43;;;17.30;85.00;;;;;;5035440;28;20044;-52
2023/09/20 06:01:41;;;;;;;10.40;3.92;;;17.40;84.80;;;;;;5018064;28;20034;-53
2023/09/20 06:04:09;;;;;;;6.47;2.95;;;17.40;84.70;;;;;;5035230;28;20038;-53
2023/09/20 06:06:37;;;;;;;9.70;3.67;;;17.40;84.70;;;;;;5049753;28;20053;-53
2023/09/20 06:09:06;;;;;;;9.23;3.67;;;17.40;84.40;;;;;;5044737;28;20276;-54
2023/09/20 06:11:32;;;;;;;9.07;3.08;;;17.40;84.30;;;;;;5035345;28;20040;-51
2023/09/20 06:13:59;;;;;;;7.53;3.63;;;17.40;84.30;;;;;;5001223;28;20033;-53
2023/09/20 06:16:25;;;;;;;12.55;3.67;;;17.40;84.30;;;;;;5047717;28;20025;-52
2023/09/20 06:18:52;;;;;;;11.38;2.92;;;17.40;84.10;;;;;;5054342;28;20025;-50
2023/09/20 06:21:20;;;;;;;9.45;3.58;;;17.40;84.30;;;;;;5018745;28;20112;-54
2023/09/20 06:23:47;;;;;;;10.50;3.90;;;17.40;84.40;;;;;;5034753;28;20021;-52
2023/09/20 06:26:14;;;;;;;13.38;4.57;;;17.40;84.30;;;;;;5038653;28;20021;-54
2023/09/20 06:28:42;;;;;;;7.25;2.75;;;17.40;84.30;;;;;;5035075;28;20017;-54
2023/09/20 06:31:13;;;;;;;8.98;3.35;;;17.40;84.50;;;;;;5034843;28;20040;-53
2023/09/20 06:33:47;;;;;;;9.27;4.15;;;17.30;84.50;;;;;;5034586;28;20038;-52
2023/09/20 06:36:18;;;;;;;8.27;3.95;;;17.40;84.60;;;;;;5034151;28;20025;-54
2023/09/20 06:38:49;;;;;;;8.35;4.15;;;17.40;84.60;;;;;;5020955;28;20033;-52
2023/09/20 06:41:20;;;;;;;13.82;4.60;;;17.30;84.60;;;;;;5021332;28;20037;-55
2023/09/20 06:43:48;;;;;;;24.85;11.00;;;17.30;84.70;;;;;;5034350;28;20040;-52
2023/09/20 06:46:18;;;;;;;11.50;4.40;;;17.30;84.70;;;;;;5033405;28;20459;-49
2023/09/20 06:48:46;;;;;;;7.82;3.60;;;17.30;84.70;;;;;;5037025;28;20339;-54
2023/09/20 06:51:13;;;;;;;13.15;5.53;;;17.40;84.90;;;;;;5034331;28;20167;-54
2023/09/20 06:53:38;;;;;;;20.55;8.20;;;17.40;84.80;;;;;;5034212;28;20040;-54
2023/09/20 06:56:05;;;;;;;18.73;5.38;;;17.40;84.50;;;;;;5019717;28;20364;-55
2023/09/20 06:58:36;;;;;;;24.20;10.85;;;17.30;84.50;;;;;;5014490;28;20034;-53
2023/09/20 07:01:04;;;;;;;10.27;3.13;;;17.30;84.60;;;;;;5022052;28;20055;-54
2023/09/20 07:03:35;;;;;;;14.03;3.20;;;17.30;84.60;;;;;;5022369;28;20026;-54
2023/09/20 07:06:05;;;;;;;8.32;3.00;;;17.40;84.20;;;;;;5013886;28;20466;-50
2023/09/20 07:08:32;;;;;;;9.82;3.70;;;17.40;84.10;;;;;;5014014;28;20474;-53
2023/09/20 07:11:01;;;;;;;6.55;3.25;;;17.40;84.10;;;;;;5016521;28;20041;-52
2023/09/20 07:13:32;;;;;;;10.43;3.63;;;17.40;84.20;;;;;;5034219;28;20056;-55
2023/09/20 07:16:04;;;;;;;7.68;3.08;;;17.40;84.30;;;;;;5033318;28;20112;-55
2023/09/20 07:18:33;;;;;;;7.28;3.28;;;17.40;84.30;;;;;;5028167;28;20029;-52
2023/09/20 07:21:04;;;;;;;7.00;3.03;;;17.40;84.00;;;;;;5013985;28;20029;-55
2023/09/20 07:23:31;;;;;;;8.35;4.18;;;17.40;83.90;;;;;;5012815;28;20367;-52
2023/09/20 07:25:59;;;;;;;8.23;3.53;;;17.50;84.20;;;;;;5014019;28;20022;-53
2023/09/20 07:28:26;;;;;;;10.93;4.55;;;17.40;83.90;;;;;;5009025;28;20030;-55
2023/09/20 07:30:56;;;;;;;8.13;3.38;;;17.50;84.00;;;;;;5016609;28;20142;-54
2023/09/20 07:33:23;;;;;;;7.88;3.50;;;17.50;84.10;;;;;;5011754;28;20481;-55
2023/09/20 07:36:00;;;;;;;7.28;3.28;;;17.60;83.50;;;;;;5013844;28;20094;-48
2023/09/20 07:38:28;;;;;;;6.78;3.00;;;17.60;83.60;;;;;;5012743;28;20030;-55
2023/09/20 07:41:19;;;;;;;7.13;3.53;;;17.60;83.60;;;;;;5025918;28;20029;-53
2023/09/20 07:43:47;;;;;;;7.22;3.00;;;17.70;83.50;;;;;;5013594;28;20033;-55
2023/09/20 07:46:21;;;;;;;9.52;3.40;;;17.70;83.80;;;;;;5012917;28;20046;-52
2023/09/20 07:48:50;;;;;;;6.95;2.78;;;17.60;83.70;;;;;;5013453;28;20037;-50
2023/09/20 07:51:20;;;;;;;6.15;3.10;;;17.60;84.00;;;;;;5032914;28;20037;-53
2023/09/20 07:53:54;;;;;;;6.80;2.83;;;17.70;83.80;;;;;;5014440;28;20041;-52
2023/09/20 07:56:23;;;;;;;8.65;3.63;;;17.70;84.10;;;;;;5013492;28;20057;-55
2023/09/20 07:58:49;;;;;;;9.50;3.10;;;17.80;83.60;;;;;;5033015;28;20234;-54
2023/09/20 08:01:20;;;;;;;7.47;3.00;;;18.00;83.00;;;;;;5032846;28;20552;-52
2023/09/20 08:04:21;;;;;;;5.75;2.50;;;18.00;82.90;;;;;;5040470;28;20369;-49
2023/09/20 08:06:42;;;;;;;6.80;3.13;;;18.10;82.90;;;;;;5050214;28;20071;-55
2023/09/20 08:09:09;;;;;;;9.65;2.90;;;18.40;82.50;;;;;;5040999;28;20029;-52
2023/09/20 08:11:38;;;;;;;9.98;2.90;;;18.80;81.30;;;;;;5033183;28;20026;-55
2023/09/20 08:14:05;;;;;;;5.75;2.95;;;18.90;80.70;;;;;;5036695;28;20057;-52
2023/09/20 08:16:35;;;;;;;4.93;2.75;;;19.10;79.90;;;;;;5015426;28;20056;-51
2023/09/20 08:21:36;;;;;;;10.23;3.03;;;19.60;78.70;;;;;;5032999;28;20040;-54
2023/09/20 09:00:46;;;;;;;6.65;2.65;;;19.90;77.90;;;;;;5021723;28;20557;-54
2023/09/20 09:03:15;;;;;;;6.28;2.80;;;19.60;78.10;;;;;;5036233;28;20041;-53
2023/09/20 09:05:42;;;;;;;8.50;3.17;;;19.60;78.60;;;;;;5036991;28;20104;-55
2023/09/20 09:08:13;;;;;;;7.25;2.92;;;19.40;79.60;;;;;;5036331;28;20037;-54
2023/09/20 09:10:41;;;;;;;8.77;2.78;;;19.40;80.50;;;;;;5036307;28;20033;-52
2023/09/20 09:13:08;;;;;;;7.28;2.90;;;19.40;80.10;;;;;;5053111;28;20400;-54
2023/09/20 09:15:34;;;;;;;8.45;2.78;;;19.50;79.50;;;;;;5038691;28;20053;-56
2023/09/20 09:18:01;;;;;;;7.70;3.10;;;19.70;79.70;;;;;;5019848;28;20072;-53
2023/09/20 09:20:36;;;;;;;9.57;3.55;;;19.90;78.70;;;;;;5035754;28;20033;-55
2023/09/20 09:23:22;;;;;;;5.82;2.30;;;19.90;78.50;;;;;;5020584;28;20391;-54
2023/09/20 09:25:49;;;;;;;12.63;2.92;;;20.00;78.60;;;;;;5035770;28;20049;-55
2023/09/20 09:28:16;;;;;;;8.20;3.05;;;20.30;78.00;;;;;;5049344;28;20057;-54
2023/09/20 09:30:49;;;;;;;7.63;2.85;;;20.30;78.50;;;;;;5055889;28;20055;-54
2023/09/20 09:33:16;;;;;;;5.65;2.10;;;20.40;77.80;;;;;;5037367;28;20037;-55
2023/09/20 09:35:45;;;;;;;7.00;2.60;;;20.70;77.40;;;;;;5038321;28;20144;-56
2023/09/20 09:38:18;;;;;;;8.35;3.13;;;21.00;76.80;;;;;;5025472;28;20033;-56
2023/09/20 09:40:58;;;;;;;6.68;2.38;;;21.40;75.40;;;;;;5035403;28;20120;-56
2023/09/20 09:43:29;;;;;;;7.63;3.03;;;21.40;74.80;;;;;;5047278;28;20084;-55
2023/09/20 09:46:08;;;;;;;7.05;2.28;;;21.70;74.40;;;;;;5036255;28;20143;-56
2023/09/20 09:48:37;;;;;;;6.23;3.13;;;21.90;73.60;;;;;;5018306;28;20041;-53
2023/09/20 09:51:16;;;;;;;8.40;3.25;;;22.00;72.90;;;;;;5035836;28;20282;-53
2023/09/20 09:53:45;;;;;;;;;;;21.90;72.50;;;;;;5036003;28;20395;-53
2023/09/20 09:56:16;;;;;;;5.05;2.45;;;21.80;72.70;;;;;;5034650;28;20293;-53
2023/09/20 09:58:43;;;;;;;6.15;2.40;;;21.60;73.70;;;;;;5016830;28;20045;-54
2023/09/20 10:01:15;;;;;;;5.38;2.35;;;21.50;73.80;;;;;;5044495;28;20124;-55
2023/09/20 10:03:52;;;;;;;7.05;2.00;;;21.20;74.10;;;;;;5047002;28;20104;-56
2023/09/20 10:06:22;;;;;;;6.28;2.60;;;21.10;75.30;;;;;;5034522;28;20021;-56
2023/09/20 10:08:54;;;;;;;9.50;3.08;;;20.90;75.10;;;;;;5037987;28;20052;-56
2023/09/20 10:11:25;;;;;;;8.68;2.90;;;20.90;75.20;;;;;;5053526;28;20051;-52
2023/09/20 10:14:07;;;;;;;8.15;2.40;;;20.80;76.60;;;;;;5024467;28;20371;-51
2023/09/20 10:16:44;;;;;;;5.40;1.85;;;20.90;76.30;;;;;;5035141;28;20021;-55
2023/09/20 10:19:13;;;;;;;9.50;2.50;;;20.90;76.30;;;;;;5012548;28;20033;-54
2023/09/20 10:21:58;;;;;;;5.55;2.35;;;20.80;76.60;;;;;;5017550;28;20039;-51
2023/09/20 10:24:33;;;;;;;5.75;2.25;;;20.80;76.00;;;;;;5034940;28;20056;-55
2023/09/20 10:27:03;;;;;;;8.13;2.70;;;20.70;76.20;;;;;;5001640;28;20384;-53
2023/09/20 10:29:33;;;;;;;5.88;2.88;;;20.50;75.70;;;;;;5042057;28;20091;-56
2023/09/20 10:32:18;;;;;;;6.85;2.50;;;20.40;76.40;;;;;;5038789;28;20025;-54
2023/09/20 10:35:33;;;;;;;7.18;2.65;;;20.30;76.70;;;;;;5034905;28;20040;-55
2023/09/20 10:38:11;;;;;;;7.25;3.00;;;20.30;77.40;;;;;;4973935;28;20042;-54
2023/09/20 10:41:00;;;;;;;4.72;2.15;;;20.20;77.50;;;;;;4973205;28;20425;-55
2023/09/20 10:43:36;;;;;;;10.50;3.40;;;20.00;77.30;;;;;;4977431;28;20031;-55
2023/09/20 10:46:22;;;;;;;9.13;3.28;;;20.00;77.50;;;;;;4976693;28;20045;-56
2023/09/20 10:48:52;;;;;;;5.20;2.53;;;20.00;77.60;;;;;;4973664;28;20395;-56
2023/09/20 10:51:36;;;;;;;;;;;20.20;77.80;;;;;;4974019;28;20034;-54
2023/09/20 10:54:04;;;;;;;7.90;2.92;;;20.30;76.90;;;;;;4978140;28;19940;-56
2023/09/20 10:56:53;;;;;;;9.13;3.47;;;20.60;77.70;;;;;;4958319;28;20047;-55
2023/09/20 10:59:27;;;;;;;9.43;3.42;;;20.90;76.60;;;;;;4968258;28;20484;-53
2023/09/20 11:02:02;;;;;;;7.15;2.80;;;21.10;75.50;;;;;;4957300;28;20077;-53
2023/09/20 11:04:34;;;;;;;6.40;2.35;;;21.40;75.20;;;;;;4954638;28;20416;-52
2023/09/20 11:07:09;;;;;;;8.15;2.85;;;21.50;74.20;;;;;;4972188;28;20110;-55
2023/09/20 11:09:40;;;;;;;5.95;2.65;;;21.40;73.20;;;;;;4958920;28;20106;-53
2023/09/20 11:12:14;;;;;;;4.93;2.40;;;21.50;73.10;;;;;;4991975;28;20069;-55
2023/09/20 11:14:44;;;;;;;6.22;2.17;;;21.60;72.70;;;;;;5020667;28;20048;-56
2023/09/20 11:17:19;;;;;;;6.90;2.20;;;21.60;73.10;;;;;;5014062;28;20459;-56
2023/09/20 11:19:48;;;;;;;6.45;2.60;;;21.60;72.90;;;;;;4996750;28;20446;-56
2023/09/20 11:22:14;;;;;;;5.28;2.55;;;21.30;73.00;;;;;;5013853;28;20030;-55
2023/09/20 11:24:45;;;;;;;5.18;1.77;;;21.30;74.00;;;;;;5030041;28;20465;-56
2023/09/20 11:27:14;;;;;;;4.47;2.00;;;21.20;74.60;;;;;;5032594;28;20029;-54
2023/09/20 11:29:43;;;;;;;3.92;2.15;;;21.20;74.30;;;;;;5033120;28;20037;-56
2023/09/20 11:32:11;;;;;;;5.70;1.70;;;21.00;73.80;;;;;;5033633;28;20172;-56
2023/09/20 11:34:55;;;;;;;4.85;2.08;;;21.00;74.00;;;;;;5032506;28;20144;-56
2023/09/20 11:37:30;;;;;;;5.75;2.17;;;20.90;74.60;;;;;;5089985;27;20429;-56
2023/09/20 11:40:04;;;;;;;6.40;1.98;;;20.90;75.20;;;;;;5085439;28;20046;-55
2023/09/20 11:42:52;;;;;;;7.28;2.35;;;20.80;74.30;;;;;;5069785;28;20615;-54
2023/09/20 11:45:17;;;;;;;;;;;20.70;75.30;;;;;;5087937;28;20524;-56
2023/09/20 11:47:46;;;;;;;6.78;2.28;;;20.70;75.50;;;;;;5080193;28;20003;-55
2023/09/20 11:50:15;;;;;;;5.35;2.20;;;20.60;75.00;;;;;;5070665;28;20029;-54
2023/09/20 11:52:48;;;;;;;5.68;2.30;;;20.50;75.50;;;;;;5090156;28;20024;-52
2023/09/20 11:55:16;;;;;;;8.98;2.00;;;20.50;75.40;;;;;;5089943;28;20058;-55
2023/09/20 11:57:45;;;;;;;7.13;2.17;;;20.60;75.50;;;;;;5075397;28;20090;-54
2023/09/20 12:00:29;;;;;;;6.82;2.67;;;20.60;76.00;;;;;;5086074;28;20046;-56
2023/09/20 12:02:58;;;;;;;6.30;2.25;;;20.60;75.80;;;;;;5067158;28;20052;-56
2023/09/20 12:05:25;;;;;;;5.75;2.00;;;20.50;75.50;;;;;;5069690;28;20025;-52
2023/09/20 12:07:56;;;;;;;2.50;1.60;;;20.50;75.60;;;;;;5069422;28;20020;-56
2023/09/20 12:10:26;;;;;;;4.63;1.98;;;20.50;76.20;;;;;;5079584;28;20037;-54
2023/09/20 12:12:53;;;;;;;6.80;2.35;;;20.50;76.20;;;;;;5051953;28;20529;-52
2023/09/20 12:15:23;;;;;;;3.97;2.03;;;20.50;76.10;;;;;;5082867;28;20067;-55
2023/09/20 12:17:55;;;;;;;5.68;2.20;;;20.40;76.00;;;;;;5089665;28;20449;-56
2023/09/20 12:20:27;;;;;;;5.63;1.92;;;20.40;76.00;;;;;;5067533;28;20037;-55
2023/09/20 12:23:01;;;;;;;7.80;2.28;;;20.50;75.90;;;;;;5086794;28;20020;-54
2023/09/20 12:25:42;;;;;;;6.30;1.98;;;20.50;75.90;;;;;;5073666;28;20480;-54
2023/09/20 12:28:10;;;;;;;4.45;2.08;;;20.60;75.40;;;;;;5069203;28;20029;-54
2023/09/20 12:30:39;;;;;;;4.85;2.20;;;20.50;75.70;;;;;;5074745;28;20426;-54
2023/09/20 12:33:11;;;;;;;5.38;2.33;;;20.50;76.40;;;;;;5069156;28;20025;-56
2023/09/20 12:35:45;;;;;;;6.03;2.10;;;20.60;75.50;;;;;;5068543;28;20080;-52
2023/09/20 12:38:11;;;;;;;7.20;2.78;;;20.60;75.30;;;;;;5068689;28;20033;-56
2023/09/20 12:40:40;;;;;;;8.15;1.90;;;20.50;75.90;;;;;;5083877;28;20400;-56
2023/09/20 12:43:08;;;;;;;4.70;2.20;;;20.60;75.20;;;;;;5070531;28;20029;-56
2023/09/20 12:45:33;;;;;;;5.93;2.35;;;20.60;76.10;;;;;;5080174;28;20032;-54
2023/09/20 12:48:02;;;;;;;5.38;2.10;;;20.60;76.20;;;;;;5065869;28;20048;-54
2023/09/20 12:50:36;;;;;;;4.45;2.05;;;20.60;76.30;;;;;;5054105;28;20025;-56
2023/09/20 12:53:08;;;;;;;7.45;2.15;;;20.50;76.30;;;;;;5074820;28;20032;-55
2023/09/20 12:55:37;;;;;;;5.30;2.25;;;20.50;76.00;;;;;;5075090;28;20036;-55
2023/09/20 12:58:07;;;;;;;6.63;1.92;;;20.60;76.50;;;;;;5060180;28;20025;-53
2023/09/20 13:00:40;;;;;;;6.00;2.60;;;20.80;76.10;;;;;;5065716;28;20072;-54
2023/09/20 13:03:09;;;;;;;4.03;2.08;;;20.70;75.20;;;;;;5075084;28;20616;-52
2023/09/20 13:05:37;;;;;;;4.20;2.10;;;20.60;75.70;;;;;;5062174;28;20040;-55
2023/09/20 13:08:08;;;;;;;6.22;2.25;;;20.70;75.60;;;;;;5055151;28;20095;-56
2023/09/20 13:10:35;;;;;;;5.47;2.28;;;20.80;76.30;;;;;;5055557;28;20040;-56
2023/09/20 13:13:08;;;;;;;4.53;1.95;;;20.80;74.80;;;;;;5072857;28;20056;-53
2023/09/20 13:15:44;;;;;;;8.85;2.65;;;20.90;75.10;;;;;;5069688;28;20040;-54
2023/09/20 13:18:11;;;;;;;5.35;2.10;;;20.80;75.20;;;;;;5074793;28;20111;-53
2023/09/20 13:20:44;;;;;;;6.07;2.17;;;20.70;75.40;;;;;;5074761;28;20032;-55
2023/09/20 13:23:11;;;;;;;4.78;2.33;;;20.60;75.10;;;;;;5060121;28;20107;-53
2023/09/20 13:25:41;;;;;;;7.93;2.33;;;20.60;75.70;;;;;;5056656;28;20067;-51
2023/09/20 13:28:08;;;;;;;5.47;2.90;;;20.60;75.30;;;;;;5054687;28;20488;-52
2023/09/20 13:30:40;;;;;;;4.72;2.33;;;20.60;76.10;;;;;;5061048;28;20052;-55
2023/09/20 13:33:16;;;;;;;4.03;2.03;;;20.80;76.30;;;;;;5061396;28;20107;-55
2023/09/20 13:35:43;;;;;;;8.15;2.35;;;20.90;75.30;;;;;;5060449;28;20052;-52
2023/09/20 13:38:15;;;;;;;5.40;2.67;;;20.90;74.80;;;;;;5052537;28;20021;-54
2023/09/20 13:40:46;;;;;;;8.18;2.40;;;20.90;75.30;;;;;;5054399;28;20033;-51